createdAt,value
2022-10-18T00:01:38.335Z,101892.53
2022-10-18T00:04:07.534Z,101896.97
2022-10-18T00:06:36.812Z,101903.50
2022-10-18T00:09:06.466Z,101899.06
2022-10-18T00:11:34.154Z,101892.78
2022-10-18T00:14:01.834Z,101895.94
2022-10-18T00:16:29.586Z,101894.91
2022-10-18T00:18:57.405Z,101890.47
2022-10-18T00:21:26.555Z,101899.75
2022-10-18T00:23:55.092Z,101896.63
2022-10-18T00:26:25.242Z,101898.09
2022-10-18T00:28:55.229Z,101905.63
2022-10-18T00:31:25.086Z,101911.97
2022-10-18T00:33:54.519Z,101913.03
2022-10-18T00:36:22.704Z,101908.22
2022-10-18T00:38:52.396Z,101914.31
2022-10-18T00:41:23.691Z,101914.09
2022-10-18T00:43:53.961Z,101919.13
2022-10-18T00:46:22.256Z,101921.50
2022-10-18T00:48:50.918Z,101925.06
2022-10-18T00:51:21.274Z,101922.53
2022-10-18T00:53:49.828Z,101924.22
2022-10-18T00:56:19.129Z,101925.88
2022-10-18T00:58:48.689Z,101920.41
2022-10-18T01:01:16.384Z,101921.91
2022-10-18T01:03:44.313Z,101929.72
2022-10-18T01:06:11.939Z,101923.59
2022-10-18T01:08:56.658Z,101920.44
2022-10-18T01:11:51.259Z,101915.38
2022-10-18T01:14:28.174Z,101920.41
2022-10-18T01:17:01.082Z,101921.06
2022-10-18T01:20:08.297Z,101919.59
2022-10-18T01:22:40.357Z,101924.63
2022-10-18T01:25:21.007Z,101922.13
2022-10-18T01:27:58.078Z,101917.69
2022-10-18T01:30:38.934Z,101919.38
2022-10-18T01:33:14.243Z,101917.47
2022-10-18T01:35:48.561Z,101914.97
2022-10-18T01:38:19.661Z,101899.38
2022-10-18T01:40:51.311Z,101901.03
2022-10-18T01:43:20.978Z,101890.09
2022-10-18T01:45:50.765Z,101893.47
2022-10-18T01:48:18.744Z,101888.84
2022-10-18T01:50:46.416Z,101897.28
2022-10-18T01:53:24.673Z,101887.59
2022-10-18T01:56:00.874Z,101877.88
2022-10-18T01:58:32.478Z,101888.44
2022-10-18T02:01:08.454Z,101880.81
2022-10-18T02:03:44.152Z,101884.63
2022-10-18T02:06:19.684Z,101886.75
2022-10-18T02:08:54.644Z,101884.00
2022-10-18T02:11:22.862Z,101882.94
2022-10-18T02:13:54.340Z,101880.00
2022-10-18T02:16:27.779Z,101874.97
2022-10-18T02:19:01.514Z,101871.81
2022-10-18T02:21:30.646Z,101875.59
2022-10-18T02:24:00.120Z,101890.34
2022-10-18T02:26:27.789Z,101882.97
2022-10-18T02:28:56.172Z,101884.63
2022-10-18T02:31:30.119Z,101878.34
2022-10-18T02:34:01.676Z,101878.56
2022-10-18T02:36:34.457Z,101874.97
2022-10-18T02:39:06.043Z,101874.13
2022-10-18T02:41:34.073Z,101872.44
2022-10-18T02:44:01.725Z,101868.88
2022-10-18T02:46:30.782Z,101865.28
2022-10-18T02:48:58.530Z,101877.09
2022-10-18T02:51:26.232Z,101872.88
2022-10-18T02:53:54.062Z,101873.31
2022-10-18T02:56:21.681Z,101866.16
2022-10-18T02:58:49.353Z,101866.78
2022-10-18T03:01:17.055Z,101864.88
2022-10-18T03:03:46.127Z,101859.63
2022-10-18T03:06:13.766Z,101854.16
2022-10-18T03:08:41.424Z,101861.94
2022-10-18T03:11:09.147Z,101855.84
2022-10-18T03:13:36.836Z,101862.41
2022-10-18T03:16:04.644Z,101861.75
2022-10-18T03:18:32.264Z,101862.41
2022-10-18T03:21:05.049Z,101863.84
2022-10-18T03:23:32.858Z,101864.50
2022-10-18T03:26:00.494Z,101865.16
2022-10-18T03:28:28.280Z,101863.69
2022-10-18T03:31:01.184Z,101855.88
2022-10-18T03:33:28.909Z,101848.31
2022-10-18T03:35:56.540Z,101847.44
2022-10-18T03:38:25.650Z,101845.78
2022-10-18T03:40:53.308Z,101848.31
2022-10-18T03:43:20.998Z,101851.06
2022-10-18T03:45:48.889Z,101851.88
2022-10-18T03:48:16.636Z,101847.25
2022-10-18T03:50:44.791Z,101851.06
2022-10-18T03:53:12.454Z,101843.28
2022-10-18T03:55:41.461Z,101842.25
2022-10-18T03:58:09.297Z,101831.50
2022-10-18T04:00:37.261Z,101832.97
2022-10-18T04:03:04.991Z,101832.97
2022-10-18T04:05:32.621Z,101833.81
2022-10-18T04:08:00.271Z,101835.50
2022-10-18T04:10:27.907Z,101833.59
2022-10-18T04:12:56.850Z,101830.84
2022-10-18T04:15:24.496Z,101833.59
2022-10-18T04:17:52.112Z,101840.56
2022-10-18T04:20:19.968Z,101841.41
2022-10-18T04:22:49.189Z,101840.78
2022-10-18T04:25:17.164Z,101854.03
2022-10-18T04:27:45.138Z,101850.25
2022-10-18T04:30:14.810Z,101855.09
2022-10-18T04:32:42.641Z,101846.25
2022-10-18T04:35:11.119Z,101850.91
2022-10-18T04:37:38.779Z,101848.78
2022-10-18T04:40:07.652Z,101848.34
2022-10-18T04:42:35.326Z,101844.56
2022-10-18T04:45:02.999Z,101846.91
2022-10-18T04:47:32.272Z,101849.19
2022-10-18T04:50:00.157Z,101850.25
2022-10-18T04:52:27.918Z,101850.25
2022-10-18T04:54:55.622Z,101843.09
2022-10-18T04:57:23.390Z,101844.78
2022-10-18T04:59:51.019Z,101847.72
2022-10-18T05:02:18.665Z,101851.94
2022-10-18T05:04:47.688Z,101857.41
2022-10-18T05:07:15.265Z,101847.94
2022-10-18T05:09:43.027Z,101860.38
2022-10-18T05:12:10.861Z,101863.13
2022-10-18T05:14:38.542Z,101854.03
2022-10-18T05:17:06.219Z,101856.38
2022-10-18T05:19:33.907Z,101860.38
2022-10-18T05:22:02.897Z,101866.25
2022-10-18T05:24:30.576Z,101859.72
2022-10-18T05:26:58.451Z,101863.13
2022-10-18T05:31:59.008Z,101872.13
2022-10-18T05:34:27.317Z,101874.25
2022-10-18T05:36:55.110Z,101871.72
2022-10-18T05:39:24.455Z,101874.63
2022-10-18T05:41:52.179Z,101862.63
2022-10-18T05:44:20.074Z,101873.16
2022-10-18T05:46:47.733Z,101864.97
2022-10-18T05:49:15.874Z,101870.44
2022-10-18T05:51:43.596Z,101860.78
2022-10-18T05:54:12.691Z,101871.53
2022-10-18T05:56:41.798Z,101873.19
2022-10-18T05:59:12.260Z,101880.56
2022-10-18T06:01:42.019Z,101877.00
2022-10-18T06:04:11.093Z,101884.34
2022-10-18T06:06:39.730Z,101886.03
2022-10-18T06:09:08.661Z,101886.66
2022-10-18T06:11:37.671Z,101887.31
2022-10-18T06:14:08.749Z,101888.38
2022-10-18T06:19:05.259Z,101894.88
2022-10-18T06:21:32.940Z,101900.56
2022-10-18T06:24:00.796Z,101903.53
2022-10-18T06:26:29.058Z,101911.50
2022-10-18T06:28:56.834Z,101912.56
2022-10-18T06:31:25.969Z,101907.94
2022-10-18T06:33:53.767Z,101914.03
2022-10-18T06:36:23.079Z,101919.94
2022-10-18T06:38:51.640Z,101922.44
2022-10-18T06:41:20.398Z,101923.50
2022-10-18T06:43:49.520Z,101917.63
2022-10-18T06:46:17.598Z,101923.09
2022-10-18T06:48:46.856Z,101922.44
2022-10-18T06:51:15.212Z,101930.66
2022-10-18T06:53:53.418Z,101927.91
2022-10-18T06:56:31.187Z,101937.19
2022-10-18T07:01:31.742Z,101935.31
2022-10-18T07:04:00.792Z,101928.97
2022-10-18T07:06:28.618Z,101925.19
2022-10-18T07:08:56.985Z,101932.13
2022-10-18T07:11:26.769Z,101932.97
2022-10-18T07:14:00.285Z,101937.59
2022-10-18T07:16:28.131Z,101929.41
2022-10-18T07:18:56.291Z,101923.72
2022-10-18T07:21:27.189Z,101921.19
2022-10-18T07:23:55.141Z,101924.97
2022-10-18T07:26:25.162Z,101929.81
2022-10-18T07:28:55.878Z,101928.56
2022-10-18T07:31:23.745Z,101921.84
2022-10-18T07:33:51.535Z,101926.03
2022-10-18T07:36:21.055Z,101933.00
2022-10-18T07:38:51.820Z,101938.84
2022-10-18T07:41:20.191Z,101933.81
2022-10-18T07:43:50.694Z,101936.13
2022-10-18T07:46:19.964Z,101920.13
2022-10-18T07:48:48.332Z,101917.19
2022-10-18T07:51:16.683Z,101919.09
2022-10-18T07:53:44.360Z,101911.50
2022-10-18T07:56:16.838Z,101917.19
2022-10-18T07:58:45.084Z,101925.59
2022-10-18T08:01:13.305Z,101926.44
2022-10-18T08:03:42.858Z,101934.22
2022-10-18T08:06:12.753Z,101931.28
2022-10-18T08:08:41.759Z,101938.63
2022-10-18T08:11:12.146Z,101937.38
2022-10-18T08:13:41.302Z,101928.94
2022-10-18T08:16:11.156Z,101921.34
2022-10-18T08:18:39.512Z,101925.78
2022-10-18T08:21:09.487Z,101928.50
2022-10-18T08:23:37.721Z,101918.59
2022-10-18T08:26:08.276Z,101926.81
2022-10-18T08:28:36.806Z,101925.94
2022-10-18T08:31:07.801Z,101923.19
2022-10-18T08:33:36.199Z,101929.53
2022-10-18T08:36:05.944Z,101925.34
2022-10-18T08:38:34.932Z,101928.94
2022-10-18T08:41:15.822Z,101923.69
2022-10-18T08:43:49.968Z,101926.63
2022-10-18T08:46:19.102Z,101933.38
2022-10-18T08:48:49.481Z,101942.00
2022-10-18T08:51:28.047Z,101936.09
2022-10-18T08:54:04.764Z,101935.50
2022-10-18T08:56:34.923Z,101948.53
2022-10-18T08:59:04.400Z,101941.81
2022-10-18T09:01:43.095Z,101950.44
2022-10-18T09:04:25.291Z,101957.16
2022-10-18T09:07:07.050Z,101952.97
2022-10-18T09:09:43.633Z,101966.22
2022-10-18T09:12:27.866Z,101960.72
2022-10-18T09:15:13.662Z,101965.59
2022-10-18T09:17:55.082Z,101974.84
2022-10-18T09:20:25.355Z,101978.63
2022-10-18T09:22:55.858Z,101978.03
2022-10-18T09:25:25.944Z,101964.13
2022-10-18T09:28:02.336Z,101973.16
2022-10-18T09:30:44.637Z,101976.09
2022-10-18T09:33:29.733Z,101982.63
2022-10-18T09:35:59.811Z,101979.72
2022-10-18T09:38:32.825Z,101985.19
2022-10-18T09:41:05.413Z,101987.28
2022-10-18T09:43:55.486Z,101984.75
2022-10-18T09:46:27.672Z,101982.44
2022-10-18T09:49:01.259Z,101986.66
2022-10-18T09:51:34.650Z,101986.84
2022-10-18T09:54:21.476Z,101988.97
2022-10-18T09:56:52.030Z,101981.78
2022-10-18T09:59:32.628Z,101982.44
2022-10-18T10:02:00.789Z,101982.66
2022-10-18T10:04:29.993Z,101991.06
2022-10-18T10:07:01.148Z,101984.13
2022-10-18T10:09:30.777Z,101982.22
2022-10-18T10:11:59.352Z,101994.00
2022-10-18T10:14:28.687Z,101986.84
2022-10-18T10:16:58.485Z,101986.84
2022-10-18T10:19:32.696Z,101991.25
2022-10-18T10:22:05.046Z,101995.06
2022-10-18T10:24:44.052Z,101988.72
2022-10-18T10:27:19.202Z,101984.72
2022-10-18T10:30:01.521Z,101994.19
2022-10-18T10:32:45.142Z,102002.59
2022-10-18T10:35:33.985Z,101990.81
2022-10-18T10:38:24.882Z,101995.25
2022-10-18T10:40:53.125Z,101999.63
2022-10-18T10:43:36.986Z,101992.06
2022-10-18T10:46:09.552Z,101990.38
2022-10-18T10:48:46.346Z,101992.88
2022-10-18T10:51:18.155Z,101991.63
2022-10-18T10:53:52.141Z,101976.25
2022-10-18T10:56:25.373Z,101975.19
2022-10-18T10:58:54.746Z,101980.44
2022-10-18T11:01:27.993Z,101997.94
2022-10-18T11:03:57.757Z,101984.50
2022-10-18T11:06:48.888Z,101984.50
2022-10-18T11:09:27.604Z,101985.13
2022-10-18T11:12:05.068Z,101978.19
2022-10-18T11:14:38.399Z,101986.81
2022-10-18T11:17:16.441Z,101983.88
2022-10-18T11:19:55.866Z,101978.59
2022-10-18T11:22:27.344Z,101972.72
2022-10-18T11:24:55.138Z,101979.22
2022-10-18T11:27:28.439Z,101976.69
2022-10-18T11:30:15.680Z,101977.34
2022-10-18T11:32:50.547Z,101968.72
2022-10-18T11:35:32.604Z,101968.91
2022-10-18T11:38:15.096Z,101964.28
2022-10-18T11:40:55.619Z,101964.72
2022-10-18T11:43:38.998Z,101962.59
2022-10-18T11:46:23.914Z,101961.09
2022-10-18T11:49:06.819Z,101956.63
2022-10-18T11:52:06.723Z,101954.03
2022-10-18T11:54:48.292Z,101955.22
2022-10-18T11:57:33.640Z,101956.81
2022-10-18T12:00:17.394Z,101951.56
2022-10-18T12:03:02.102Z,101961.94
2022-10-18T12:05:31.250Z,101957.19
2022-10-18T12:08:04.085Z,101954.59
2022-10-18T12:10:46.163Z,101963.97
2022-10-18T12:13:28.904Z,101954.38
2022-10-18T12:15:56.832Z,101959.31
2022-10-18T12:18:26.754Z,101952.41
2022-10-18T12:20:56.557Z,101952.81
2022-10-18T12:23:37.403Z,101946.47
2022-10-18T12:26:08.413Z,101945.28
2022-10-18T12:28:46.909Z,101951.63
2022-10-18T12:31:23.410Z,101949.44
2022-10-18T12:33:55.481Z,101940.91
2022-10-18T12:36:49.090Z,101937.41
2022-10-18T12:39:32.306Z,101930.47
2022-10-18T12:42:20.785Z,101931.06
2022-10-18T12:44:48.874Z,101912.56
2022-10-18T12:47:24.509Z,101927.59
2022-10-18T12:50:00.502Z,101935.50
2022-10-18T12:52:31.844Z,101936.03
2022-10-18T12:55:28.109Z,101939.03
2022-10-18T12:58:22.619Z,101933.53
2022-10-18T13:01:05.744Z,101933.97
2022-10-18T13:03:44.055Z,101934.69
2022-10-18T13:06:11.777Z,101944.47
2022-10-18T13:08:45.779Z,101945.22
2022-10-18T13:11:31.018Z,101950.09
2022-10-18T13:14:25.037Z,101948.31
2022-10-18T13:16:59.485Z,101953.28
2022-10-18T13:19:36.955Z,101955.25
2022-10-18T13:22:24.662Z,101945.16
2022-10-18T13:25:03.522Z,101952.91
2022-10-18T13:27:39.303Z,101952.13
2022-10-18T13:30:23.931Z,101944.47
2022-10-18T13:32:59.740Z,101954.41
2022-10-18T13:35:48.815Z,101951.31
2022-10-18T13:38:40.765Z,101955.72
2022-10-18T13:41:10.934Z,101951.53
2022-10-18T13:44:10.311Z,101952.81
2022-10-18T13:47:20.490Z,101963.41
2022-10-18T13:50:25.762Z,101961.31
2022-10-18T13:53:28.699Z,101958.63
2022-10-18T13:59:15.874Z,101963.97
2022-10-18T14:01:58.701Z,101975.38
2022-10-18T14:04:48.196Z,101968.25
2022-10-18T14:07:19.533Z,101983.22
2022-10-18T14:09:54.979Z,101973.09
2022-10-18T14:12:30.097Z,101971.03
2022-10-18T14:15:06.254Z,101981.56
2022-10-18T14:17:40.803Z,101980.34
2022-10-18T14:20:19.700Z,101985.63
2022-10-18T14:22:52.385Z,101984.56
2022-10-18T14:25:27.464Z,101987.09
2022-10-18T14:28:10.025Z,101986.44
2022-10-18T14:30:53.121Z,101993.66
2022-10-18T14:33:35.329Z,101995.59
2022-10-18T14:36:10.425Z,101998.75
2022-10-18T14:38:49.758Z,101993.94
2022-10-18T14:41:21.367Z,101998.97
2022-10-18T14:43:49.840Z,101988.03
2022-10-18T14:46:21.968Z,101991.63
2022-10-18T14:48:56.946Z,101992.69
2022-10-18T14:51:25.877Z,101994.78
2022-10-18T14:53:55.818Z,101999.63
2022-10-18T14:56:27.361Z,102008.69
2022-10-18T14:58:56.569Z,102002.59
2022-10-18T15:01:28.032Z,101997.97
2022-10-18T15:04:01.546Z,101994.16
2022-10-18T15:06:29.295Z,102000.06
2022-10-18T15:08:59.909Z,102004.31
2022-10-18T15:11:28.383Z,101997.56
2022-10-18T15:13:58.707Z,101999.03
2022-10-18T15:16:29.288Z,101999.88
2022-10-18T15:19:01.638Z,102000.75
2022-10-18T15:24:24.447Z,101992.53
2022-10-18T15:26:53.594Z,101995.91
2022-10-18T15:29:24.746Z,102000.75
2022-10-18T15:31:53.513Z,101990.44
2022-10-18T15:34:24.388Z,101993.19
2022-10-18T15:36:53.943Z,101995.69
2022-10-18T15:39:24.886Z,102000.53
2022-10-18T15:41:53.725Z,102003.69
2022-10-18T15:44:26.800Z,101998.00
2022-10-18T15:46:57.197Z,101997.78
2022-10-18T15:50:01.516Z,102009.16
2022-10-18T15:52:50.147Z,102002.44
2022-10-18T15:55:47.466Z,102010.63
2022-10-18T15:58:20.645Z,102005.56
2022-10-18T16:00:49.824Z,102006.00
2022-10-18T16:03:19.653Z,102007.91
2022-10-18T16:05:47.715Z,102006.81
2022-10-18T16:08:23.900Z,102011.88
2022-10-18T16:10:53.370Z,102011.41
2022-10-18T16:13:21.424Z,102015.19
2022-10-18T16:15:49.931Z,102015.63
2022-10-18T16:18:21.173Z,102012.66
2022-10-18T16:20:49.604Z,102022.34
2022-10-18T16:23:27.293Z,102028.88
2022-10-18T16:25:57.633Z,102022.34
2022-10-18T16:28:31.755Z,102031.38
2022-10-18T16:31:08.448Z,102028.03
2022-10-18T16:33:44.830Z,102033.88
2022-10-18T16:36:17.778Z,102030.31
2022-10-18T16:42:06.880Z,102037.66
2022-10-18T16:44:48.235Z,102035.97
2022-10-18T16:47:33.081Z,102040.78
2022-10-18T16:50:28.418Z,102048.16
2022-10-18T16:53:30.160Z,102053.19
2022-10-18T16:56:09.960Z,102056.94
2022-10-18T16:59:12.488Z,102057.16
2022-10-18T17:02:12.237Z,102062.19
2022-10-18T17:04:55.940Z,102060.09
2022-10-18T17:11:02.965Z,102073.09
2022-10-18T17:13:31.376Z,102075.00
2022-10-18T17:16:07.229Z,102075.19
2022-10-18T17:18:35.552Z,102076.03
2022-10-18T17:21:05.659Z,102086.72
2022-10-18T17:23:35.213Z,102089.47
2022-10-18T17:26:21.914Z,102089.47
2022-10-18T17:28:51.897Z,102094.91
2022-10-18T17:31:24.344Z,102094.91
2022-10-18T17:33:54.477Z,102097.41
2022-10-18T17:36:23.237Z,102099.31
2022-10-18T17:38:51.695Z,102097.41
2022-10-18T17:41:20.202Z,102104.56
2022-10-18T17:43:51.566Z,102110.44
2022-10-18T17:46:20.434Z,102111.97
2022-10-18T17:48:57.485Z,102117.25
2022-10-18T17:51:26.496Z,102119.34
2022-10-18T17:53:55.164Z,102120.22
2022-10-18T17:56:41.205Z,102127.38
2022-10-18T17:59:12.548Z,102134.69
2022-10-18T18:01:40.724Z,102130.09
2022-10-18T18:04:11.180Z,102127.38
2022-10-18T18:06:39.555Z,102124.59
2022-10-18T18:09:08.961Z,102125.34
2022-10-18T18:11:38.440Z,102119.84
2022-10-18T18:14:09.066Z,102121.06
2022-10-18T18:16:38.380Z,102131.13
2022-10-18T18:19:09.848Z,102133.16
2022-10-18T18:21:41.967Z,102135.03
2022-10-18T18:24:10.763Z,102139.41
2022-10-18T18:26:40.615Z,102133.31
2022-10-18T18:29:14.516Z,102141.69
2022-10-18T18:31:43.748Z,102141.69
2022-10-18T18:34:12.231Z,102134.38
2022-10-18T18:36:41.673Z,102141.25
2022-10-18T18:39:19.572Z,102141.84
2022-10-18T18:41:48.936Z,102145.81
2022-10-18T18:44:16.843Z,102136.59
2022-10-18T18:46:44.618Z,102136.28
2022-10-18T18:49:13.170Z,102137.72
2022-10-18T18:51:44.640Z,102139.47
2022-10-18T18:54:14.646Z,102141.78
2022-10-18T18:56:43.179Z,102138.44
2022-10-18T18:59:13.864Z,102139.75
2022-10-18T19:01:42.152Z,102135.03
2022-10-18T19:04:10.644Z,102131.56
2022-10-18T19:06:40.864Z,102130.75
2022-10-18T19:09:19.148Z,102128.25
2022-10-18T19:11:52.248Z,102121.50
2022-10-18T19:14:23.531Z,102124.00
2022-10-18T19:16:53.335Z,102123.97
2022-10-18T19:19:23.209Z,102129.75
2022-10-18T19:21:58.086Z,102133.91
2022-10-18T19:24:30.078Z,102134.31
2022-10-18T19:27:00.337Z,102136.69
2022-10-18T19:29:31.767Z,102133.22
2022-10-18T19:32:01.363Z,102142.63
2022-10-18T19:34:31.465Z,102149.38
2022-10-18T19:37:02.308Z,102145.22
2022-10-18T19:39:43.193Z,102144.97
2022-10-18T19:42:18.598Z,102148.81
2022-10-18T19:47:38.374Z,102155.38
2022-10-18T19:50:21.126Z,102164.53
2022-10-18T19:52:53.424Z,102165.19
2022-10-18T19:55:33.906Z,102165.63
2022-10-18T19:58:12.913Z,102177.47
2022-10-18T20:00:53.880Z,102179.09
2022-10-18T20:03:32.477Z,102176.56
2022-10-18T20:09:30.706Z,102173.00
2022-10-18T20:15:52.107Z,102166.41
2022-10-18T20:18:20.905Z,102168.78
2022-10-18T20:20:49.605Z,102176.19
2022-10-18T20:23:18.423Z,102174.47
2022-10-18T20:25:56.573Z,102182.53
2022-10-18T20:28:25.152Z,102186.84
2022-10-18T20:31:06.271Z,102181.09
2022-10-18T20:33:35.051Z,102179.38
2022-10-18T20:36:04.253Z,102182.69
2022-10-18T20:38:33.106Z,102181.38
2022-10-18T20:41:05.692Z,102180.47
2022-10-18T20:43:33.445Z,102179.53
2022-10-18T20:46:01.652Z,102171.41
2022-10-18T20:48:31.963Z,102172.72
2022-10-18T20:51:04.106Z,102182.59
2022-10-18T20:53:31.804Z,102176.28
2022-10-18T20:56:03.828Z,102173.75
2022-10-18T20:58:31.596Z,102172.25
2022-10-18T21:01:06.219Z,102178.81
2022-10-18T21:03:37.739Z,102187.69
2022-10-18T21:06:13.111Z,102172.16
2022-10-18T21:08:40.982Z,102174.88
2022-10-18T21:11:09.417Z,102175.47
2022-10-18T21:13:37.346Z,102167.28
2022-10-18T21:16:06.474Z,102164.56
2022-10-18T21:18:37.523Z,102170.00
2022-10-18T21:21:10.542Z,102173.09
2022-10-18T21:23:38.625Z,102178.19
2022-10-18T21:26:07.248Z,102183.34
2022-10-18T21:28:35.589Z,102179.97
2022-10-18T21:31:14.471Z,102171.97
2022-10-18T21:33:44.227Z,102163.91
2022-10-18T21:36:12.083Z,102173.97
2022-10-18T21:38:40.266Z,102172.75
2022-10-18T21:41:11.839Z,102178.09
2022-10-18T21:43:41.293Z,102174.91
2022-10-18T21:46:10.879Z,102176.31
2022-10-18T21:48:39.615Z,102174.50
2022-10-18T21:51:09.482Z,102185.03
2022-10-18T21:53:37.971Z,102180.69
2022-10-18T21:56:07.351Z,102179.16
2022-10-18T21:58:35.782Z,102179.47
2022-10-18T22:01:07.207Z,102188.41
2022-10-18T22:03:34.962Z,102190.09
2022-10-18T22:06:07.264Z,102193.88
2022-10-18T22:08:36.290Z,102189.34
2022-10-18T22:11:04.322Z,102190.84
2022-10-18T22:13:32.019Z,102191.31
2022-10-18T22:16:01.655Z,102193.88
2022-10-18T22:18:30.177Z,102193.28
2022-10-18T22:20:59.589Z,102189.06
2022-10-18T22:23:32.067Z,102191.78
2022-10-18T22:26:05.179Z,102180.06
2022-10-18T22:28:32.929Z,102177.69
2022-10-18T22:31:03.270Z,102172.72
2022-10-18T22:33:30.949Z,102174.66
2022-10-18T22:35:58.589Z,102179.78
2022-10-18T22:38:26.266Z,102175.72
2022-10-18T22:40:53.921Z,102177.41
2022-10-18T22:43:22.892Z,102176.56
2022-10-18T22:45:50.571Z,102167.81
2022-10-18T22:48:18.208Z,102168.28
2022-10-18T22:50:45.852Z,102169.91
2022-10-18T22:53:13.450Z,102162.38
2022-10-18T22:55:41.080Z,102158.31
2022-10-18T22:58:08.780Z,102162.09
2022-10-18T23:00:39.817Z,102153.56
2022-10-18T23:03:07.419Z,102150.16
2022-10-18T23:05:38.101Z,102150.16
2022-10-18T23:08:05.952Z,102152.03
2022-10-18T23:10:38.386Z,102148.09
2022-10-18T23:13:06.580Z,102151.66
2022-10-18T23:15:34.250Z,102148.75
2022-10-18T23:18:03.274Z,102143.69
2022-10-18T23:20:30.973Z,102145.09
2022-10-18T23:22:58.648Z,102150.53
2022-10-18T23:25:27.165Z,102150.44
2022-10-18T23:27:54.929Z,102143.28
2022-10-18T23:30:22.762Z,102143.09
2022-10-18T23:32:50.419Z,102144.81
2022-10-18T23:35:19.410Z,102143.47
2022-10-18T23:37:47.087Z,102142.25
2022-10-18T23:40:14.848Z,102144.97
2022-10-18T23:42:42.547Z,102149.38
2022-10-18T23:45:11.049Z,102147.41
2022-10-18T23:47:38.747Z,102146.56
2022-10-18T23:50:07.196Z,102150.78
2022-10-18T23:52:36.236Z,102142.06
2022-10-18T23:55:04.334Z,102149.38
2022-10-18T23:57:32.228Z,102147.31
